sensor_id;sensor_type;location;lat;lon;timestamp;P1;durP1;ratioP1;P2;durP2;ratioP2
24102;SDS011;12278;53.058;9.028;2022-08-18T09:29:48;21.17;;;17.02;;
24102;SDS011;12278;53.058;9.028;2022-08-18T09:38:21;19.38;;;14.60;;
24102;SDS011;12278;53.058;9.028;2022-08-18T09:42:51;16.85;;;15.15;;
24102;SDS011;12278;53.058;9.028;2022-08-18T09:47:06;21.13;;;16.00;;
24102;SDS011;12278;53.058;9.028;2022-08-18T10:03:38;13.98;;;12.57;;
24102;SDS011;12278;53.058;9.028;2022-08-18T10:07:39;17.70;;;13.65;;
24102;SDS011;12278;53.058;9.028;2022-08-18T10:24:58;15.80;;;12.02;;
24102;SDS011;12278;53.058;9.028;2022-08-18T10:29:00;17.95;;;13.82;;
24102;SDS011;12278;53.058;9.028;2022-08-18T10:33:07;14.63;;;12.57;;
24102;SDS011;12278;53.058;9.028;2022-08-18T10:41:30;17.05;;;12.60;;
24102;SDS011;12278;53.058;9.028;2022-08-18T10:45:36;11.38;;;10.20;;
24102;SDS011;12278;53.058;9.028;2022-08-18T10:49:46;13.82;;;12.23;;
24102;SDS011;12278;53.058;9.028;2022-08-18T10:53:51;11.48;;;10.35;;
24102;SDS011;12278;53.058;9.028;2022-08-18T11:07:13;13.80;;;8.70;;
24102;SDS011;12278;53.058;9.028;2022-08-18T11:11:23;10.98;;;9.75;;
24102;SDS011;12278;53.058;9.028;2022-08-18T11:19:53;9.18;;;8.13;;
24102;SDS011;12278;53.058;9.028;2022-08-18T11:28:18;7.78;;;7.05;;
24102;SDS011;12278;53.058;9.028;2022-08-18T11:32:26;9.25;;;7.25;;
24102;SDS011;12278;53.058;9.028;2022-08-18T11:36:30;9.10;;;7.10;;
24102;SDS011;12278;53.058;9.028;2022-08-18T11:40:35;8.93;;;7.22;;
24102;SDS011;12278;53.058;9.028;2022-08-18T11:44:40;8.10;;;6.82;;
24102;SDS011;12278;53.058;9.028;2022-08-18T11:48:44;8.27;;;6.35;;
24102;SDS011;12278;53.058;9.028;2022-08-18T11:52:50;7.60;;;6.90;;
24102;SDS011;12278;53.058;9.028;2022-08-18T11:56:53;10.02;;;7.28;;
24102;SDS011;12278;53.058;9.028;2022-08-18T12:01:52;7.93;;;6.15;;
24102;SDS011;12278;53.058;9.028;2022-08-18T12:05:59;7.45;;;5.93;;
24102;SDS011;12278;53.058;9.028;2022-08-18T12:10:22;6.07;;;5.57;;
24102;SDS011;12278;53.058;9.028;2022-08-18T12:14:29;6.97;;;5.55;;
24102;SDS011;12278;53.058;9.028;2022-08-18T12:18:49;6.28;;;4.75;;
24102;SDS011;12278;53.058;9.028;2022-08-18T12:22:50;5.53;;;4.80;;
24102;SDS011;12278;53.058;9.028;2022-08-18T12:26:56;7.22;;;5.82;;
24102;SDS011;12278;53.058;9.028;2022-08-18T12:30:58;8.18;;;6.03;;
24102;SDS011;12278;53.058;9.028;2022-08-18T12:35:01;9.80;;;6.60;;
24102;SDS011;12278;53.058;9.028;2022-08-18T12:39:08;7.82;;;6.07;;
24102;SDS011;12278;53.058;9.028;2022-08-18T12:43:10;10.68;;;6.53;;
24102;SDS011;12278;53.058;9.028;2022-08-18T12:47:15;8.13;;;6.88;;
24102;SDS011;12278;53.058;9.028;2022-08-18T12:51:21;8.05;;;5.78;;
24102;SDS011;12278;53.058;9.028;2022-08-18T12:55:22;12.70;;;6.57;;
24102;SDS011;12278;53.058;9.028;2022-08-18T12:59:23;9.40;;;6.30;;
24102;SDS011;12278;53.058;9.028;2022-08-18T13:03:25;9.60;;;5.75;;
24102;SDS011;12278;53.058;9.028;2022-08-18T13:07:26;8.15;;;5.43;;
24102;SDS011;12278;53.058;9.028;2022-08-18T13:11:27;8.90;;;5.75;;
24102;SDS011;12278;53.058;9.028;2022-08-18T13:15:30;6.57;;;4.50;;
24102;SDS011;12278;53.058;9.028;2022-08-18T13:19:32;6.57;;;4.93;;
24102;SDS011;12278;53.058;9.028;2022-08-18T13:23:33;6.82;;;5.82;;
24102;SDS011;12278;53.058;9.028;2022-08-18T13:27:34;6.45;;;5.80;;
24102;SDS011;12278;53.058;9.028;2022-08-18T13:31:36;10.93;;;5.75;;
24102;SDS011;12278;53.058;9.028;2022-08-18T13:35:38;7.70;;;5.50;;
24102;SDS011;12278;53.058;9.028;2022-08-18T13:39:39;6.00;;;5.40;;
24102;SDS011;12278;53.058;9.028;2022-08-18T13:43:40;5.30;;;4.80;;
24102;SDS011;12278;53.058;9.028;2022-08-18T13:47:43;7.13;;;5.43;;
24102;SDS011;12278;53.058;9.028;2022-08-18T13:51:46;6.63;;;5.13;;
24102;SDS011;12278;53.058;9.028;2022-08-18T13:55:49;5.43;;;4.82;;
24102;SDS011;12278;53.058;9.028;2022-08-18T13:59:50;11.05;;;5.15;;
24102;SDS011;12278;53.058;9.028;2022-08-18T14:03:51;9.48;;;4.57;;
24102;SDS011;12278;53.058;9.028;2022-08-18T14:07:52;7.03;;;4.97;;
24102;SDS011;12278;53.058;9.028;2022-08-18T14:11:53;8.25;;;5.90;;
24102;SDS011;12278;53.058;9.028;2022-08-18T14:15:55;6.32;;;4.75;;
24102;SDS011;12278;53.058;9.028;2022-08-18T14:19:57;4.95;;;4.40;;
24102;SDS011;12278;53.058;9.028;2022-08-18T14:24:18;6.57;;;4.75;;
24102;SDS011;12278;53.058;9.028;2022-08-18T14:28:37;6.90;;;4.38;;
24102;SDS011;12278;53.058;9.028;2022-08-18T14:32:38;6.05;;;4.00;;
24102;SDS011;12278;53.058;9.028;2022-08-18T14:36:41;4.65;;;3.63;;
24102;SDS011;12278;53.058;9.028;2022-08-18T14:40:42;5.57;;;4.15;;
24102;SDS011;12278;53.058;9.028;2022-08-18T14:44:47;6.28;;;3.88;;
24102;SDS011;12278;53.058;9.028;2022-08-18T14:48:49;6.93;;;4.07;;
24102;SDS011;12278;53.058;9.028;2022-08-18T14:52:51;5.95;;;4.53;;
24102;SDS011;12278;53.058;9.028;2022-08-18T14:56:52;7.95;;;4.78;;
24102;SDS011;12278;53.058;9.028;2022-08-18T15:00:54;10.35;;;4.20;;
24102;SDS011;12278;53.058;9.028;2022-08-18T15:05:00;6.57;;;4.95;;
24102;SDS011;12278;53.058;9.028;2022-08-18T15:09:01;5.35;;;4.25;;
24102;SDS011;12278;53.058;9.028;2022-08-18T15:13:03;7.63;;;4.70;;
24102;SDS011;12278;53.058;9.028;2022-08-18T15:17:04;9.60;;;4.43;;
24102;SDS011;12278;53.058;9.028;2022-08-18T15:21:09;4.72;;;3.85;;
24102;SDS011;12278;53.058;9.028;2022-08-18T15:25:29;6.88;;;4.13;;
24102;SDS011;12278;53.058;9.028;2022-08-18T15:29:46;7.28;;;4.38;;
24102;SDS011;12278;53.058;9.028;2022-08-18T15:33:48;5.80;;;3.75;;
24102;SDS011;12278;53.058;9.028;2022-08-18T15:37:49;4.57;;;3.72;;
24102;SDS011;12278;53.058;9.028;2022-08-18T15:41:52;6.40;;;3.80;;
24102;SDS011;12278;53.058;9.028;2022-08-18T15:45:53;5.57;;;3.78;;
24102;SDS011;12278;53.058;9.028;2022-08-18T15:49:54;7.10;;;3.90;;
24102;SDS011;12278;53.058;9.028;2022-08-18T15:53:55;5.43;;;3.47;;
24102;SDS011;12278;53.058;9.028;2022-08-18T15:57:56;6.28;;;3.70;;
24102;SDS011;12278;53.058;9.028;2022-08-18T16:02:01;8.18;;;4.22;;
24102;SDS011;12278;53.058;9.028;2022-08-18T16:06:04;9.80;;;4.90;;
24102;SDS011;12278;53.058;9.028;2022-08-18T16:10:07;8.40;;;4.35;;
24102;SDS011;12278;53.058;9.028;2022-08-18T16:14:09;10.25;;;4.95;;
24102;SDS011;12278;53.058;9.028;2022-08-18T16:18:10;7.10;;;4.40;;
24102;SDS011;12278;53.058;9.028;2022-08-18T16:22:12;5.93;;;4.82;;
24102;SDS011;12278;53.058;9.028;2022-08-18T16:26:14;6.30;;;4.68;;
24102;SDS011;12278;53.058;9.028;2022-08-18T16:30:19;6.57;;;4.93;;
24102;SDS011;12278;53.058;9.028;2022-08-18T16:34:26;9.05;;;5.35;;
24102;SDS011;12278;53.058;9.028;2022-08-18T16:38:27;6.10;;;4.82;;
24102;SDS011;12278;53.058;9.028;2022-08-18T16:42:28;7.85;;;4.75;;
24102;SDS011;12278;53.058;9.028;2022-08-18T16:46:32;6.40;;;4.40;;
24102;SDS011;12278;53.058;9.028;2022-08-18T16:50:33;7.78;;;5.18;;
24102;SDS011;12278;53.058;9.028;2022-08-18T16:54:36;6.50;;;4.82;;
24102;SDS011;12278;53.058;9.028;2022-08-18T16:58:37;6.03;;;4.93;;
24102;SDS011;12278;53.058;9.028;2022-08-18T17:03:01;6.50;;;4.97;;
24102;SDS011;12278;53.058;9.028;2022-08-18T17:07:24;7.82;;;4.90;;
24102;SDS011;12278;53.058;9.028;2022-08-18T17:11:25;6.55;;;5.03;;
24102;SDS011;12278;53.058;9.028;2022-08-18T17:15:27;8.20;;;4.97;;
24102;SDS011;12278;53.058;9.028;2022-08-18T17:19:29;6.03;;;5.20;;
24102;SDS011;12278;53.058;9.028;2022-08-18T17:23:33;6.55;;;5.07;;
24102;SDS011;12278;53.058;9.028;2022-08-18T17:27:37;6.28;;;4.60;;
24102;SDS011;12278;53.058;9.028;2022-08-18T17:31:44;7.90;;;5.07;;
24102;SDS011;12278;53.058;9.028;2022-08-18T17:36:14;6.63;;;4.45;;
24102;SDS011;12278;53.058;9.028;2022-08-18T17:40:44;9.02;;;5.43;;
24102;SDS011;12278;53.058;9.028;2022-08-18T17:44:49;5.82;;;5.32;;
24102;SDS011;12278;53.058;9.028;2022-08-18T17:49:00;7.00;;;5.43;;
24102;SDS011;12278;53.058;9.028;2022-08-18T17:53:09;5.47;;;4.95;;
24102;SDS011;12278;53.058;9.028;2022-08-18T17:57:19;5.88;;;5.00;;
24102;SDS011;12278;53.058;9.028;2022-08-18T18:01:32;6.82;;;4.57;;
24102;SDS011;12278;53.058;9.028;2022-08-18T18:05:40;5.57;;;4.63;;
24102;SDS011;12278;53.058;9.028;2022-08-18T18:09:55;6.07;;;5.10;;
24102;SDS011;12278;53.058;9.028;2022-08-18T18:14:20;5.78;;;5.03;;
24102;SDS011;12278;53.058;9.028;2022-08-18T18:18:38;5.45;;;4.53;;
24102;SDS011;12278;53.058;9.028;2022-08-18T18:22:42;6.78;;;5.00;;
24102;SDS011;12278;53.058;9.028;2022-08-18T18:26:44;9.57;;;5.15;;
24102;SDS011;12278;53.058;9.028;2022-08-18T18:30:49;6.82;;;4.72;;
24102;SDS011;12278;53.058;9.028;2022-08-18T18:35:09;5.95;;;4.88;;
24102;SDS011;12278;53.058;9.028;2022-08-18T18:39:24;5.68;;;4.72;;
24102;SDS011;12278;53.058;9.028;2022-08-18T18:52:15;7.78;;;4.15;;
24102;SDS011;12278;53.058;9.028;2022-08-18T19:00:57;6.97;;;5.38;;
24102;SDS011;12278;53.058;9.028;2022-08-18T19:05:08;4.43;;;3.67;;
24102;SDS011;12278;53.058;9.028;2022-08-18T19:09:37;5.38;;;4.28;;
24102;SDS011;12278;53.058;9.028;2022-08-18T19:13:50;6.00;;;4.43;;
24102;SDS011;12278;53.058;9.028;2022-08-18T19:18:02;6.18;;;4.53;;
24102;SDS011;12278;53.058;9.028;2022-08-18T19:22:33;6.30;;;4.40;;
24102;SDS011;12278;53.058;9.028;2022-08-18T19:26:59;7.50;;;4.03;;
24102;SDS011;12278;53.058;9.028;2022-08-18T19:31:14;5.90;;;4.70;;
24102;SDS011;12278;53.058;9.028;2022-08-18T19:35:23;8.57;;;4.25;;
24102;SDS011;12278;53.058;9.028;2022-08-18T19:39:50;7.78;;;3.92;;
24102;SDS011;12278;53.058;9.028;2022-08-18T20:02:53;8.45;;;5.07;;
24102;SDS011;12278;53.058;9.028;2022-08-18T20:16:30;8.52;;;4.95;;
24102;SDS011;12278;53.058;9.028;2022-08-18T20:28:50;8.68;;;4.43;;
24102;SDS011;12278;53.058;9.028;2022-08-18T20:33:14;8.50;;;4.00;;
24102;SDS011;12278;53.058;9.028;2022-08-18T20:37:24;4.13;;;3.70;;
24102;SDS011;12278;53.058;9.028;2022-08-18T20:54:24;5.47;;;3.88;;
24102;SDS011;12278;53.058;9.028;2022-08-18T20:59:00;4.82;;;3.95;;
24102;SDS011;12278;53.058;9.028;2022-08-18T21:03:10;5.07;;;3.90;;
24102;SDS011;12278;53.058;9.028;2022-08-18T21:07:16;5.57;;;4.13;;
24102;SDS011;12278;53.058;9.028;2022-08-18T21:11:22;5.20;;;3.80;;
24102;SDS011;12278;53.058;9.028;2022-08-18T21:15:44;5.30;;;4.03;;
24102;SDS011;12278;53.058;9.028;2022-08-18T21:19:45;6.05;;;4.32;;
24102;SDS011;12278;53.058;9.028;2022-08-18T21:23:51;6.07;;;4.05;;
24102;SDS011;12278;53.058;9.028;2022-08-18T21:27:54;4.95;;;4.47;;
24102;SDS011;12278;53.058;9.028;2022-08-18T21:32:06;6.25;;;3.97;;
24102;SDS011;12278;53.058;9.028;2022-08-18T21:36:12;7.00;;;4.70;;
24102;SDS011;12278;53.058;9.028;2022-08-18T21:40:13;6.05;;;4.32;;
24102;SDS011;12278;53.058;9.028;2022-08-18T21:44:21;4.88;;;4.43;;
24102;SDS011;12278;53.058;9.028;2022-08-18T21:48:27;4.38;;;3.80;;
24102;SDS011;12278;53.058;9.028;2022-08-18T21:52:29;4.57;;;4.10;;
24102;SDS011;12278;53.058;9.028;2022-08-18T21:56:32;5.45;;;4.00;;
24102;SDS011;12278;53.058;9.028;2022-08-18T22:00:37;4.28;;;3.85;;
24102;SDS011;12278;53.058;9.028;2022-08-18T22:04:46;5.22;;;3.90;;
24102;SDS011;12278;53.058;9.028;2022-08-18T22:08:49;4.05;;;3.60;;
24102;SDS011;12278;53.058;9.028;2022-08-18T22:13:45;5.75;;;4.40;;
24102;SDS011;12278;53.058;9.028;2022-08-18T22:17:59;6.43;;;4.10;;
24102;SDS011;12278;53.058;9.028;2022-08-18T22:22:25;4.85;;;4.45;;
24102;SDS011;12278;53.058;9.028;2022-08-18T22:27:02;5.68;;;4.60;;
24102;SDS011;12278;53.058;9.028;2022-08-18T22:31:20;5.38;;;4.70;;
24102;SDS011;12278;53.058;9.028;2022-08-18T22:35:23;6.22;;;4.35;;
24102;SDS011;12278;53.058;9.028;2022-08-18T22:39:29;4.90;;;4.50;;
24102;SDS011;12278;53.058;9.028;2022-08-18T22:43:47;4.97;;;4.53;;
24102;SDS011;12278;53.058;9.028;2022-08-18T22:47:48;7.15;;;5.20;;
24102;SDS011;12278;53.058;9.028;2022-08-18T22:51:50;5.60;;;4.93;;
24102;SDS011;12278;53.058;9.028;2022-08-18T22:55:54;5.45;;;4.53;;
24102;SDS011;12278;53.058;9.028;2022-08-18T22:59:58;8.20;;;5.15;;
24102;SDS011;12278;53.058;9.028;2022-08-18T23:04:00;5.93;;;5.00;;
24102;SDS011;12278;53.058;9.028;2022-08-18T23:08:02;5.32;;;4.82;;
24102;SDS011;12278;53.058;9.028;2022-08-18T23:12:04;4.85;;;4.32;;
24102;SDS011;12278;53.058;9.028;2022-08-18T23:16:15;5.18;;;4.35;;
24102;SDS011;12278;53.058;9.028;2022-08-18T23:20:16;5.00;;;4.35;;
24102;SDS011;12278;53.058;9.028;2022-08-18T23:24:18;5.38;;;4.88;;
24102;SDS011;12278;53.058;9.028;2022-08-18T23:28:21;5.18;;;4.68;;
24102;SDS011;12278;53.058;9.028;2022-08-18T23:32:23;6.47;;;4.57;;
24102;SDS011;12278;53.058;9.028;2022-08-18T23:36:26;6.10;;;5.18;;
24102;SDS011;12278;53.058;9.028;2022-08-18T23:40:32;7.95;;;5.15;;
24102;SDS011;12278;53.058;9.028;2022-08-18T23:44:35;7.93;;;5.32;;
24102;SDS011;12278;53.058;9.028;2022-08-18T23:48:36;5.20;;;4.70;;
24102;SDS011;12278;53.058;9.028;2022-08-18T23:52:37;6.75;;;5.28;;
24102;SDS011;12278;53.058;9.028;2022-08-18T23:56:39;6.28;;;5.68;;
